createdAt,value
2023-03-21T00:01:43.906Z,45.45
2023-03-21T00:04:14.969Z,55.35
2023-03-21T00:06:46.008Z,55.25
2023-03-21T00:09:17.192Z,57.00
2023-03-21T00:11:49.407Z,51.60
2023-03-21T00:14:23.152Z,47.43
2023-03-21T00:16:54.102Z,59.18
2023-03-21T00:19:26.919Z,71.72
2023-03-21T00:22:07.447Z,51.18
2023-03-21T00:24:30.768Z,53.75
2023-03-21T00:27:21.983Z,52.38
2023-03-21T00:29:34.925Z,48.78
2023-03-21T00:32:06.125Z,51.92
2023-03-21T00:34:43.710Z,52.90
2023-03-21T00:37:11.434Z,55.40
2023-03-21T00:39:42.666Z,55.90
2023-03-21T00:42:13.852Z,52.90
2023-03-21T00:44:45.932Z,49.48
2023-03-21T00:47:17.215Z,51.70
2023-03-21T00:49:48.293Z,59.90
2023-03-21T00:52:30.593Z,55.80
2023-03-21T00:54:52.259Z,56.15
2023-03-21T00:57:37.577Z,53.23
2023-03-21T00:59:56.057Z,57.45
2023-03-21T01:02:27.763Z,55.55
2023-03-21T01:04:58.854Z,49.40
2023-03-21T01:07:29.788Z,52.35
2023-03-21T01:10:01.062Z,49.27
2023-03-21T01:12:32.358Z,58.30
2023-03-21T01:15:03.522Z,53.08
2023-03-21T01:17:34.497Z,53.65
2023-03-21T01:20:07.617Z,62.98
2023-03-21T01:22:38.720Z,64.53
2023-03-21T01:25:21.953Z,72.00
2023-03-21T01:27:44.304Z,57.80
2023-03-21T01:30:21.489Z,54.80
2023-03-21T01:32:48.328Z,57.48
2023-03-21T01:35:19.620Z,54.67
2023-03-21T01:37:51.286Z,65.40
2023-03-21T01:40:24.793Z,60.48
2023-03-21T01:42:58.106Z,66.87
2023-03-21T01:46:08.146Z,68.05
2023-03-21T01:48:41.990Z,54.93
2023-03-21T01:51:17.925Z,56.83
2023-03-21T01:53:53.282Z,55.43
2023-03-21T01:56:35.839Z,53.52
2023-03-21T01:59:12.424Z,55.08
2023-03-21T02:04:15.307Z,60.55
2023-03-21T02:07:06.939Z,62.15
2023-03-21T02:09:41.491Z,48.33
2023-03-21T02:12:12.676Z,54.27
2023-03-21T02:14:44.969Z,52.70
2023-03-21T02:17:36.803Z,56.58
2023-03-21T02:20:32.744Z,51.68
2023-03-21T02:23:22.594Z,45.28
2023-03-21T02:26:11.285Z,52.53
2023-03-21T02:28:53.569Z,59.27
2023-03-21T02:31:45.375Z,49.35
2023-03-21T02:34:39.870Z,70.10
2023-03-21T02:37:37.601Z,56.58
2023-03-21T02:40:12.424Z,45.30
2023-03-21T02:43:00.027Z,52.43
2023-03-21T02:45:32.771Z,50.80
2023-03-21T02:48:25.452Z,48.48
2023-03-21T02:50:53.033Z,44.63
2023-03-21T02:53:26.320Z,40.38
2023-03-21T02:55:58.666Z,42.35
2023-03-21T02:58:32.111Z,46.88
2023-03-21T03:01:02.316Z,42.93
2023-03-21T03:03:35.003Z,46.48
2023-03-21T03:06:08.910Z,43.73
2023-03-21T03:09:12.920Z,47.43
2023-03-21T03:11:48.991Z,41.20
2023-03-21T03:14:44.181Z,41.55
2023-03-21T03:17:21.513Z,39.42
2023-03-21T03:20:17.403Z,44.20
2023-03-21T03:23:14.145Z,40.67
2023-03-21T03:25:50.954Z,40.55
2023-03-21T03:28:24.744Z,38.30
2023-03-21T03:31:08.813Z,35.30
2023-03-21T03:33:31.109Z,43.35
2023-03-21T03:36:06.527Z,36.35
2023-03-21T03:38:37.067Z,38.17
2023-03-21T03:41:13.225Z,46.45
2023-03-21T03:43:48.112Z,36.85
2023-03-21T03:46:21.840Z,47.00
2023-03-21T03:49:01.263Z,34.78
2023-03-21T03:51:46.998Z,33.25
2023-03-21T03:54:20.502Z,38.10
2023-03-21T03:56:52.396Z,37.88
2023-03-21T03:59:26.507Z,36.33
2023-03-21T04:01:57.512Z,33.25
2023-03-21T04:04:30.554Z,33.92
2023-03-21T04:07:02.161Z,44.08
2023-03-21T04:09:43.726Z,40.35
2023-03-21T04:12:07.414Z,45.78
2023-03-21T04:14:44.453Z,34.67
2023-03-21T04:17:12.314Z,37.20
2023-03-21T04:19:43.614Z,43.33
2023-03-21T04:22:16.438Z,36.48
2023-03-21T04:24:47.522Z,44.15
2023-03-21T04:27:18.849Z,32.90
2023-03-21T04:29:49.864Z,40.05
2023-03-21T04:32:21.100Z,32.63
2023-03-21T04:34:53.716Z,33.73
2023-03-21T04:37:25.656Z,32.00
2023-03-21T04:39:56.906Z,47.25
2023-03-21T04:42:28.717Z,34.30
2023-03-21T04:44:59.731Z,26.57
2023-03-21T04:47:31.052Z,31.10
2023-03-21T04:50:02.490Z,32.40
2023-03-21T04:52:35.835Z,33.23
2023-03-21T04:55:06.073Z,34.67
2023-03-21T04:57:37.515Z,26.80
2023-03-21T05:00:14.702Z,27.20
2023-03-21T05:02:46.177Z,28.27
2023-03-21T05:05:17.662Z,33.42
2023-03-21T05:07:49.311Z,27.62
2023-03-21T05:10:23.468Z,32.78
2023-03-21T05:13:01.729Z,28.85
2023-03-21T05:15:32.933Z,27.73
2023-03-21T05:18:05.431Z,29.27
2023-03-21T05:20:36.842Z,30.77
2023-03-21T05:23:10.312Z,27.60
2023-03-21T05:25:42.057Z,28.73
2023-03-21T05:28:12.997Z,27.85
2023-03-21T05:30:44.031Z,26.93
2023-03-21T05:33:15.902Z,26.60
2023-03-21T05:35:46.887Z,30.17
2023-03-21T05:38:18.025Z,26.37
2023-03-21T05:40:53.027Z,26.20
2023-03-21T05:43:24.206Z,26.55
2023-03-21T05:45:56.719Z,27.37
2023-03-21T05:48:27.903Z,25.52
2023-03-21T05:50:59.059Z,27.00
2023-03-21T05:53:30.417Z,27.87
2023-03-21T05:56:01.548Z,28.47
2023-03-21T05:58:32.675Z,23.67
2023-03-21T06:01:03.855Z,24.98
2023-03-21T06:03:35.204Z,24.18
2023-03-21T06:06:08.883Z,84.22
2023-03-21T06:08:40.103Z,22.82
2023-03-21T06:11:13.722Z,25.37
2023-03-21T06:13:44.904Z,26.25
2023-03-21T06:16:16.066Z,22.95
2023-03-21T06:18:47.393Z,24.47
2023-03-21T06:21:18.976Z,28.62
2023-03-21T06:23:52.889Z,67.03
2023-03-21T06:26:24.463Z,23.90
2023-03-21T06:28:56.649Z,29.50
2023-03-21T06:31:27.883Z,29.85
2023-03-21T06:33:59.042Z,30.12
2023-03-21T06:36:29.999Z,32.25
2023-03-21T06:39:01.315Z,23.30
2023-03-21T06:41:32.374Z,28.98
2023-03-21T06:44:03.588Z,25.52
2023-03-21T06:46:34.598Z,24.57
2023-03-21T06:49:05.668Z,27.60
2023-03-21T06:51:36.915Z,24.18
2023-03-21T06:54:07.987Z,28.50
2023-03-21T06:56:39.161Z,28.62
2023-03-21T06:59:10.283Z,25.30
2023-03-21T07:01:41.505Z,28.92
2023-03-21T07:04:13.063Z,39.42
2023-03-21T07:06:44.187Z,25.30
2023-03-21T07:09:15.460Z,74.25
2023-03-21T07:11:46.701Z,27.77
2023-03-21T07:14:18.308Z,23.20
2023-03-21T07:16:49.538Z,28.07
2023-03-21T07:19:20.896Z,31.57
2023-03-21T07:21:51.910Z,32.58
2023-03-21T07:24:22.941Z,26.45
2023-03-21T07:26:53.880Z,25.77
2023-03-21T07:29:26.057Z,29.05
2023-03-21T07:31:57.415Z,23.62
2023-03-21T07:34:29.925Z,23.47
2023-03-21T07:37:01.132Z,30.82
2023-03-21T07:39:33.840Z,22.02
2023-03-21T07:42:04.971Z,25.27
2023-03-21T07:44:36.165Z,22.13
2023-03-21T07:47:08.466Z,23.18
2023-03-21T07:49:40.420Z,25.00
2023-03-21T07:52:12.000Z,69.25
2023-03-21T07:54:43.475Z,29.37
2023-03-21T07:57:15.128Z,21.42
2023-03-21T07:59:46.369Z,26.17
2023-03-21T08:02:19.174Z,24.27
2023-03-21T08:04:50.273Z,29.37
2023-03-21T08:07:21.452Z,20.92
2023-03-21T08:09:52.722Z,24.60
2023-03-21T08:12:23.823Z,23.70
2023-03-21T08:14:55.026Z,37.93
2023-03-21T08:17:26.250Z,27.27
2023-03-21T08:19:58.452Z,25.55
2023-03-21T08:22:29.870Z,31.95
2023-03-21T08:25:00.913Z,24.25
2023-03-21T08:27:33.361Z,20.50
2023-03-21T08:30:04.562Z,28.25
2023-03-21T08:32:36.034Z,23.90
2023-03-21T08:35:10.539Z,22.52
2023-03-21T08:37:51.866Z,26.48
2023-03-21T08:40:23.568Z,24.30
2023-03-21T08:42:55.139Z,29.48
2023-03-21T08:45:26.537Z,23.92
2023-03-21T08:47:58.188Z,30.55
2023-03-21T08:50:31.214Z,20.52
2023-03-21T08:53:02.381Z,19.23
2023-03-21T08:55:44.119Z,21.15
2023-03-21T08:58:15.427Z,30.48
2023-03-21T09:00:46.585Z,21.37
2023-03-21T09:03:19.223Z,25.95
2023-03-21T09:05:53.793Z,30.68
2023-03-21T09:08:25.017Z,21.40
2023-03-21T09:10:59.591Z,37.30
2023-03-21T09:13:30.952Z,18.65
2023-03-21T09:16:02.431Z,30.72
2023-03-21T09:18:53.037Z,26.45
2023-03-21T09:21:24.782Z,20.30
2023-03-21T09:23:58.658Z,28.57
2023-03-21T09:26:29.735Z,20.68
2023-03-21T09:29:02.211Z,21.20
2023-03-21T09:31:33.624Z,24.25
2023-03-21T09:34:05.148Z,26.70
2023-03-21T09:36:36.468Z,26.77
2023-03-21T09:39:07.911Z,24.18
2023-03-21T09:42:15.128Z,25.62
2023-03-21T09:45:00.059Z,22.15
2023-03-21T09:47:33.713Z,20.25
2023-03-21T09:50:14.858Z,21.73
2023-03-21T09:53:01.489Z,22.17
2023-03-21T09:55:36.306Z,35.95
2023-03-21T09:58:35.737Z,22.13
2023-03-21T10:01:25.409Z,22.32
2023-03-21T10:03:57.768Z,23.65
2023-03-21T10:06:32.812Z,19.52
2023-03-21T10:09:07.594Z,25.45
2023-03-21T10:11:54.199Z,19.65
2023-03-21T10:14:36.332Z,24.32
2023-03-21T10:17:32.657Z,23.12
2023-03-21T10:20:31.621Z,23.73
2023-03-21T10:23:05.253Z,19.55
2023-03-21T10:25:50.782Z,21.15
2023-03-21T10:28:27.020Z,32.38
2023-03-21T10:33:33.391Z,21.23
2023-03-21T10:36:06.843Z,25.50
2023-03-21T10:38:39.334Z,21.15
2023-03-21T10:41:11.927Z,22.15
2023-03-21T10:43:46.527Z,23.22
2023-03-21T10:46:25.281Z,22.50
2023-03-21T10:48:57.336Z,22.15
2023-03-21T10:51:39.172Z,24.65
2023-03-21T10:54:12.691Z,20.02
2023-03-21T10:56:48.676Z,23.00
2023-03-21T10:59:22.108Z,25.50
2023-03-21T11:01:56.440Z,29.75
2023-03-21T11:04:32.901Z,22.80
2023-03-21T11:07:07.664Z,23.30
2023-03-21T11:09:57.020Z,24.37
2023-03-21T11:12:33.097Z,29.72
2023-03-21T11:15:22.824Z,22.48
2023-03-21T11:17:56.054Z,26.73
2023-03-21T11:20:26.538Z,25.52
2023-03-21T11:22:58.949Z,25.05
2023-03-21T11:25:41.243Z,23.85
2023-03-21T11:28:17.506Z,19.67
2023-03-21T11:31:03.323Z,23.38
2023-03-21T11:33:39.557Z,23.42
2023-03-21T11:38:43.117Z,23.83
2023-03-21T11:41:18.403Z,24.40
2023-03-21T11:43:51.184Z,24.47
2023-03-21T11:46:27.048Z,30.97
2023-03-21T11:48:59.671Z,25.32
2023-03-21T11:51:39.055Z,32.48
2023-03-21T11:54:36.574Z,28.32
2023-03-21T11:57:33.627Z,33.78
2023-03-21T12:00:17.057Z,25.82
2023-03-21T12:02:56.881Z,27.13
2023-03-21T12:05:36.453Z,31.65
2023-03-21T12:08:21.728Z,34.08
2023-03-21T12:11:06.651Z,28.33
2023-03-21T12:13:59.212Z,26.10
2023-03-21T12:16:54.909Z,28.62
2023-03-21T12:22:16.292Z,24.98
2023-03-21T12:24:59.328Z,25.35
2023-03-21T12:27:48.926Z,28.55
2023-03-21T12:30:34.375Z,27.95
2023-03-21T12:33:14.697Z,28.07
2023-03-21T12:35:50.513Z,30.15
2023-03-21T12:38:34.247Z,31.87
2023-03-21T12:41:19.901Z,29.23
2023-03-21T12:44:08.433Z,29.80
2023-03-21T12:47:06.148Z,31.57
2023-03-21T12:50:05.717Z,24.23
2023-03-21T12:52:42.051Z,27.05
2023-03-21T12:55:29.055Z,26.60
2023-03-21T12:58:05.739Z,31.75
2023-03-21T13:00:42.276Z,30.70
2023-03-21T13:03:27.717Z,30.82
2023-03-21T13:06:00.551Z,25.88
2023-03-21T13:11:05.808Z,32.40
2023-03-21T13:13:54.129Z,36.28
2023-03-21T13:16:41.188Z,29.05
2023-03-21T13:19:25.664Z,31.02
2023-03-21T13:22:20.129Z,26.95
2023-03-21T13:24:53.139Z,28.92
2023-03-21T13:27:35.255Z,32.10
2023-03-21T13:30:08.911Z,33.13
2023-03-21T13:32:42.184Z,26.27
2023-03-21T13:35:19.569Z,26.90
2023-03-21T13:37:55.547Z,30.82
2023-03-21T13:40:29.732Z,32.55
2023-03-21T13:43:01.955Z,25.97
2023-03-21T13:45:38.282Z,27.45
2023-03-21T13:48:11.802Z,27.05
2023-03-21T13:50:56.666Z,26.93
2023-03-21T13:53:29.663Z,33.70
2023-03-21T13:56:22.628Z,32.50
2023-03-21T13:58:56.698Z,33.92
2023-03-21T14:01:44.390Z,32.55
2023-03-21T14:04:22.490Z,29.12
2023-03-21T14:07:01.393Z,31.62
2023-03-21T14:09:34.861Z,32.17
2023-03-21T14:12:08.084Z,26.50
2023-03-21T14:14:50.912Z,26.77
2023-03-21T14:17:29.720Z,28.75
2023-03-21T14:20:03.084Z,31.05
2023-03-21T14:22:34.295Z,30.35
2023-03-21T14:25:08.343Z,25.32
2023-03-21T14:27:39.615Z,28.32
2023-03-21T14:30:12.339Z,32.83
2023-03-21T14:32:44.053Z,25.97
2023-03-21T14:35:15.583Z,35.98
2023-03-21T14:37:48.934Z,27.17
2023-03-21T14:40:25.274Z,27.10
2023-03-21T14:45:32.068Z,26.65
2023-03-21T14:48:18.949Z,32.23
2023-03-21T14:50:59.214Z,29.63
2023-03-21T14:53:35.104Z,28.85
2023-03-21T14:56:21.055Z,35.92
2023-03-21T14:58:52.905Z,27.40
2023-03-21T15:01:36.168Z,31.23
2023-03-21T15:04:08.878Z,26.85
2023-03-21T15:06:42.462Z,28.32
2023-03-21T15:09:15.792Z,30.23
2023-03-21T15:11:53.659Z,28.30
2023-03-21T15:14:32.807Z,29.37
2023-03-21T15:17:06.259Z,26.75
2023-03-21T15:19:40.193Z,29.00
2023-03-21T15:22:19.420Z,28.12
2023-03-21T15:24:53.616Z,32.60
2023-03-21T15:27:27.046Z,27.32
2023-03-21T15:29:58.089Z,29.77
2023-03-21T15:32:30.833Z,27.60
2023-03-21T15:35:10.268Z,32.67
2023-03-21T15:37:41.577Z,26.23
2023-03-21T15:40:20.894Z,29.98
2023-03-21T15:42:53.295Z,31.85
2023-03-21T15:45:36.702Z,32.38
2023-03-21T15:48:20.850Z,30.20
2023-03-21T15:51:29.622Z,33.63
2023-03-21T15:54:06.939Z,31.87
2023-03-21T15:56:42.454Z,26.68
2023-03-21T15:59:18.669Z,30.70
2023-03-21T16:01:53.833Z,27.05
2023-03-21T16:04:32.183Z,33.28
2023-03-21T16:07:14.636Z,30.00
2023-03-21T16:09:51.076Z,31.60
2023-03-21T16:12:24.830Z,32.60
2023-03-21T16:15:00.801Z,32.45
2023-03-21T16:17:54.602Z,39.70
2023-03-21T16:20:34.209Z,31.15
2023-03-21T16:23:05.597Z,31.33
2023-03-21T16:25:42.064Z,30.48
2023-03-21T16:28:19.820Z,32.70
2023-03-21T16:30:50.965Z,31.20
2023-03-21T16:33:26.211Z,30.48
2023-03-21T16:35:58.698Z,31.00
2023-03-21T16:38:30.961Z,28.57
2023-03-21T16:41:04.552Z,32.00
2023-03-21T16:43:37.811Z,28.52
2023-03-21T16:46:09.475Z,33.83
2023-03-21T16:48:40.687Z,30.97
2023-03-21T16:51:21.324Z,32.17
2023-03-21T16:53:55.294Z,33.10
2023-03-21T16:56:31.306Z,31.55
2023-03-21T16:59:02.238Z,36.73
2023-03-21T17:01:33.276Z,34.85
2023-03-21T17:04:04.292Z,32.95
2023-03-21T17:06:38.569Z,35.60
2023-03-21T17:09:13.031Z,38.98
2023-03-21T17:11:43.490Z,36.60
2023-03-21T17:14:20.541Z,37.35
2023-03-21T17:16:51.903Z,37.17
2023-03-21T17:19:29.205Z,36.17
2023-03-21T17:22:00.117Z,37.10
2023-03-21T17:24:31.479Z,44.13
2023-03-21T17:27:03.602Z,37.10
2023-03-21T17:29:34.629Z,39.10
2023-03-21T17:32:05.735Z,43.00
2023-03-21T17:34:36.675Z,34.60
2023-03-21T17:37:07.932Z,36.28
2023-03-21T17:39:39.164Z,40.15
2023-03-21T17:42:12.436Z,38.75
2023-03-21T17:44:43.423Z,42.15
2023-03-21T17:47:16.902Z,35.78
2023-03-21T17:49:47.766Z,42.40
2023-03-21T17:52:18.938Z,43.20
2023-03-21T17:54:52.019Z,35.20
2023-03-21T17:57:22.998Z,37.75
2023-03-21T17:59:54.015Z,36.30
2023-03-21T18:02:24.222Z,36.38
2023-03-21T18:04:55.212Z,37.35
2023-03-21T18:08:01.981Z,36.58
2023-03-21T18:09:59.288Z,40.88
2023-03-21T18:12:30.418Z,35.45
2023-03-21T18:15:04.108Z,39.13
2023-03-21T18:17:35.196Z,39.48
2023-03-21T18:20:09.887Z,35.48
2023-03-21T18:22:43.512Z,37.73
2023-03-21T18:25:15.624Z,40.85
2023-03-21T18:28:09.625Z,36.85
2023-03-21T18:30:56.524Z,35.65
2023-03-21T18:32:58.904Z,38.78
2023-03-21T18:35:34.089Z,39.48
2023-03-21T18:38:05.134Z,37.75
2023-03-21T18:40:36.424Z,36.68
2023-03-21T18:45:40.456Z,37.58
2023-03-21T18:48:12.859Z,33.95
2023-03-21T18:50:47.985Z,36.50
2023-03-21T18:53:19.067Z,41.65
2023-03-21T18:55:52.423Z,45.15
2023-03-21T18:58:26.246Z,39.35
2023-03-21T19:01:06.038Z,34.92
2023-03-21T19:03:42.949Z,37.80
2023-03-21T19:06:12.105Z,34.38
2023-03-21T19:08:43.044Z,36.88
2023-03-21T19:11:14.141Z,38.08
2023-03-21T19:13:49.718Z,39.30
2023-03-21T19:16:26.912Z,35.95
2023-03-21T19:18:57.096Z,36.55
2023-03-21T19:21:28.897Z,38.42
2023-03-21T19:24:29.485Z,35.63
2023-03-21T19:26:38.686Z,39.13
2023-03-21T19:29:13.564Z,33.50
2023-03-21T19:31:46.630Z,37.58
2023-03-21T19:34:22.532Z,38.13
2023-03-21T19:36:54.635Z,36.83
2023-03-21T19:39:25.051Z,38.40
2023-03-21T19:42:15.166Z,41.25
2023-03-21T19:44:33.856Z,41.68
2023-03-21T19:47:04.806Z,37.38
2023-03-21T19:50:27.327Z,43.33
2023-03-21T19:52:15.904Z,36.25
2023-03-21T19:54:46.427Z,37.28
2023-03-21T19:57:19.820Z,37.83
2023-03-21T19:59:55.133Z,41.75
2023-03-21T20:02:39.901Z,35.43
2023-03-21T20:04:58.360Z,38.17
2023-03-21T20:07:29.316Z,36.30
2023-03-21T20:10:00.818Z,35.85
2023-03-21T20:12:33.188Z,39.48
2023-03-21T20:15:16.479Z,38.83
2023-03-21T20:17:37.835Z,39.25
2023-03-21T20:20:13.113Z,37.13
2023-03-21T20:23:05.813Z,43.13
2023-03-21T20:25:17.110Z,38.58
2023-03-21T20:28:09.328Z,39.18
2023-03-21T20:30:22.607Z,36.42
2023-03-21T20:32:53.548Z,37.35
2023-03-21T20:35:47.939Z,41.18
2023-03-21T20:37:57.485Z,37.13
2023-03-21T20:40:28.555Z,38.13
2023-03-21T20:43:03.041Z,36.95
2023-03-21T20:45:32.010Z,42.88
2023-03-21T20:48:03.207Z,40.25
2023-03-21T20:50:39.146Z,38.98
2023-03-21T20:53:07.784Z,38.53
2023-03-21T20:55:39.324Z,38.20
2023-03-21T20:58:36.519Z,38.85
2023-03-21T21:00:45.508Z,38.53
2023-03-21T21:03:20.960Z,37.83
2023-03-21T21:05:54.075Z,47.38
2023-03-21T21:08:29.276Z,39.20
2023-03-21T21:11:53.487Z,39.80
2023-03-21T21:13:33.939Z,37.55
2023-03-21T21:16:06.179Z,37.50
2023-03-21T21:18:37.705Z,37.83
2023-03-21T21:21:10.170Z,40.80
2023-03-21T21:23:43.510Z,36.93
2023-03-21T21:26:15.275Z,37.63
2023-03-21T21:28:47.618Z,40.67
2023-03-21T21:31:19.994Z,36.17
2023-03-21T21:33:51.344Z,37.65
2023-03-21T21:36:23.709Z,39.95
2023-03-21T21:38:54.629Z,43.28
2023-03-21T21:41:26.885Z,39.08
2023-03-21T21:43:57.912Z,38.40
2023-03-21T21:46:30.213Z,42.67
2023-03-21T21:49:02.475Z,45.28
2023-03-21T21:51:34.799Z,38.05
2023-03-21T21:54:07.481Z,41.68
2023-03-21T21:56:38.276Z,39.70
2023-03-21T21:59:10.083Z,43.20
2023-03-21T22:01:44.720Z,42.58
2023-03-21T22:04:15.619Z,41.58
2023-03-21T22:06:47.943Z,42.45
2023-03-21T22:09:18.960Z,42.55
2023-03-21T22:11:49.930Z,45.55
2023-03-21T22:14:22.347Z,43.30
2023-03-21T22:16:53.316Z,40.67
2023-03-21T22:19:24.467Z,43.92
2023-03-21T22:21:57.124Z,46.10
2023-03-21T22:24:28.855Z,45.17
2023-03-21T22:27:01.025Z,52.70
2023-03-21T22:29:34.360Z,55.75
2023-03-21T22:32:05.365Z,50.75
2023-03-21T22:34:36.833Z,47.78
2023-03-21T22:37:07.635Z,50.65
2023-03-21T22:39:38.578Z,45.03
2023-03-21T22:42:09.519Z,46.00
2023-03-21T22:44:40.493Z,45.75
2023-03-21T22:47:13.199Z,49.08
2023-03-21T22:49:45.330Z,46.65
2023-03-21T22:52:16.332Z,54.60
2023-03-21T22:54:47.659Z,44.18
2023-03-21T22:57:18.970Z,46.30
2023-03-21T22:59:50.106Z,45.12
2023-03-21T23:02:21.540Z,42.80
2023-03-21T23:04:52.332Z,44.88
2023-03-21T23:07:23.124Z,43.35
2023-03-21T23:09:54.186Z,41.70
2023-03-21T23:12:25.016Z,45.83
2023-03-21T23:14:55.844Z,42.65
2023-03-21T23:17:26.929Z,41.42
2023-03-21T23:19:57.732Z,44.18
2023-03-21T23:22:33.787Z,43.05
2023-03-21T23:25:04.887Z,42.62
2023-03-21T23:27:36.498Z,46.33
2023-03-21T23:30:08.706Z,46.08
2023-03-21T23:32:39.486Z,41.50
2023-03-21T23:35:11.757Z,44.98
2023-03-21T23:37:43.818Z,39.50
2023-03-21T23:40:15.877Z,45.28
2023-03-21T23:42:46.933Z,40.50
2023-03-21T23:45:17.958Z,48.10
2023-03-21T23:47:48.920Z,40.98
2023-03-21T23:50:19.880Z,44.60
2023-03-21T23:52:50.677Z,40.03
2023-03-21T23:55:22.751Z,40.40
2023-03-21T23:57:54.823Z,49.90
